sensor_id;sensor_type;location;lat;lon;timestamp;P1;durP1;ratioP1;P2;durP2;ratioP2
81996;SDS011;71500;50.806;8.774;2023-11-21T00:01:49;4.90;;;3.40;;
81996;SDS011;71500;50.806;8.774;2023-11-21T00:04:20;4.90;;;4.00;;
81996;SDS011;71500;50.806;8.774;2023-11-21T00:06:52;6.30;;;4.00;;
81996;SDS011;71500;50.806;8.774;2023-11-21T00:09:24;6.30;;;4.30;;
81996;SDS011;71500;50.806;8.774;2023-11-21T00:11:55;6.20;;;3.90;;
81996;SDS011;71500;50.806;8.774;2023-11-21T00:14:27;6.30;;;4.80;;
81996;SDS011;71500;50.806;8.774;2023-11-21T00:17:00;7.90;;;4.10;;
81996;SDS011;71500;50.806;8.774;2023-11-21T00:19:31;5.30;;;3.70;;
81996;SDS011;71500;50.806;8.774;2023-11-21T00:22:04;5.80;;;4.10;;
81996;SDS011;71500;50.806;8.774;2023-11-21T00:24:36;5.10;;;4.00;;
81996;SDS011;71500;50.806;8.774;2023-11-21T00:27:07;5.50;;;4.10;;
81996;SDS011;71500;50.806;8.774;2023-11-21T00:29:39;4.50;;;3.50;;
81996;SDS011;71500;50.806;8.774;2023-11-21T00:32:10;5.50;;;3.30;;
81996;SDS011;71500;50.806;8.774;2023-11-21T00:34:42;4.80;;;3.30;;
81996;SDS011;71500;50.806;8.774;2023-11-21T00:37:13;4.30;;;3.50;;
81996;SDS011;71500;50.806;8.774;2023-11-21T00:39:45;4.00;;;2.90;;
81996;SDS011;71500;50.806;8.774;2023-11-21T00:42:17;5.80;;;3.10;;
81996;SDS011;71500;50.806;8.774;2023-11-21T00:44:48;5.60;;;3.30;;
81996;SDS011;71500;50.806;8.774;2023-11-21T00:47:19;3.50;;;2.70;;
81996;SDS011;71500;50.806;8.774;2023-11-21T00:49:51;4.10;;;3.10;;
81996;SDS011;71500;50.806;8.774;2023-11-21T00:52:23;3.90;;;2.60;;
81996;SDS011;71500;50.806;8.774;2023-11-21T00:54:54;5.80;;;3.30;;
81996;SDS011;71500;50.806;8.774;2023-11-21T00:57:29;6.80;;;3.80;;
81996;SDS011;71500;50.806;8.774;2023-11-21T01:00:00;7.10;;;4.80;;
81996;SDS011;71500;50.806;8.774;2023-11-21T01:02:35;7.20;;;5.00;;
81996;SDS011;71500;50.806;8.774;2023-11-21T01:05:07;6.50;;;4.90;;
81996;SDS011;71500;50.806;8.774;2023-11-21T01:07:39;7.80;;;5.20;;
81996;SDS011;71500;50.806;8.774;2023-11-21T01:10:10;9.10;;;5.50;;
81996;SDS011;71500;50.806;8.774;2023-11-21T01:12:43;7.80;;;5.30;;
81996;SDS011;71500;50.806;8.774;2023-11-21T01:15:14;6.90;;;4.80;;
81996;SDS011;71500;50.806;8.774;2023-11-21T01:17:47;6.00;;;3.90;;
81996;SDS011;71500;50.806;8.774;2023-11-21T01:20:18;7.10;;;4.40;;
81996;SDS011;71500;50.806;8.774;2023-11-21T01:22:50;6.80;;;4.40;;
81996;SDS011;71500;50.806;8.774;2023-11-21T01:25:22;7.70;;;4.00;;
81996;SDS011;71500;50.806;8.774;2023-11-21T01:27:55;6.70;;;4.40;;
81996;SDS011;71500;50.806;8.774;2023-11-21T01:30:26;7.00;;;4.80;;
81996;SDS011;71500;50.806;8.774;2023-11-21T01:32:58;7.80;;;4.80;;
81996;SDS011;71500;50.806;8.774;2023-11-21T01:35:29;7.30;;;4.70;;
81996;SDS011;71500;50.806;8.774;2023-11-21T01:38:01;6.00;;;4.20;;
81996;SDS011;71500;50.806;8.774;2023-11-21T01:40:32;6.90;;;4.80;;
81996;SDS011;71500;50.806;8.774;2023-11-21T01:43:04;10.50;;;4.10;;
81996;SDS011;71500;50.806;8.774;2023-11-21T01:45:37;7.70;;;4.20;;
81996;SDS011;71500;50.806;8.774;2023-11-21T01:48:08;5.60;;;3.60;;
81996;SDS011;71500;50.806;8.774;2023-11-21T01:50:41;6.30;;;4.60;;
81996;SDS011;71500;50.806;8.774;2023-11-21T01:53:13;7.40;;;4.50;;
81996;SDS011;71500;50.806;8.774;2023-11-21T01:55:45;9.10;;;5.40;;
81996;SDS011;71500;50.806;8.774;2023-11-21T01:58:18;11.20;;;6.40;;
81996;SDS011;71500;50.806;8.774;2023-11-21T02:00:50;10.80;;;5.90;;
81996;SDS011;71500;50.806;8.774;2023-11-21T02:03:25;8.20;;;5.80;;
81996;SDS011;71500;50.806;8.774;2023-11-21T02:05:57;9.10;;;5.60;;
81996;SDS011;71500;50.806;8.774;2023-11-21T02:08:28;11.60;;;6.50;;
81996;SDS011;71500;50.806;8.774;2023-11-21T02:11:00;10.00;;;6.50;;
81996;SDS011;71500;50.806;8.774;2023-11-21T02:13:32;9.20;;;5.40;;
81996;SDS011;71500;50.806;8.774;2023-11-21T02:16:04;9.50;;;5.20;;
81996;SDS011;71500;50.806;8.774;2023-11-21T02:18:37;7.90;;;5.10;;
81996;SDS011;71500;50.806;8.774;2023-11-21T02:21:09;7.90;;;5.30;;
81996;SDS011;71500;50.806;8.774;2023-11-21T02:23:40;9.00;;;5.40;;
81996;SDS011;71500;50.806;8.774;2023-11-21T02:26:13;8.10;;;5.40;;
81996;SDS011;71500;50.806;8.774;2023-11-21T02:28:45;8.40;;;5.70;;
81996;SDS011;71500;50.806;8.774;2023-11-21T02:31:17;9.90;;;5.30;;
81996;SDS011;71500;50.806;8.774;2023-11-21T02:33:48;8.90;;;5.60;;
81996;SDS011;71500;50.806;8.774;2023-11-21T02:36:20;8.40;;;4.20;;
81996;SDS011;71500;50.806;8.774;2023-11-21T02:38:52;8.40;;;4.70;;
81996;SDS011;71500;50.806;8.774;2023-11-21T02:41:23;7.60;;;4.40;;
81996;SDS011;71500;50.806;8.774;2023-11-21T02:43:55;9.60;;;4.80;;
81996;SDS011;71500;50.806;8.774;2023-11-21T02:46:26;11.00;;;5.20;;
81996;SDS011;71500;50.806;8.774;2023-11-21T02:48:57;10.80;;;5.30;;
81996;SDS011;71500;50.806;8.774;2023-11-21T02:51:29;8.90;;;5.50;;
81996;SDS011;71500;50.806;8.774;2023-11-21T02:54:00;8.70;;;4.70;;
81996;SDS011;71500;50.806;8.774;2023-11-21T02:56:35;8.20;;;5.00;;
81996;SDS011;71500;50.806;8.774;2023-11-21T02:59:08;8.60;;;4.60;;
81996;SDS011;71500;50.806;8.774;2023-11-21T03:01:39;9.00;;;5.60;;
81996;SDS011;71500;50.806;8.774;2023-11-21T03:04:11;9.50;;;4.80;;
81996;SDS011;71500;50.806;8.774;2023-11-21T03:06:46;8.50;;;4.50;;
81996;SDS011;71500;50.806;8.774;2023-11-21T03:09:17;10.10;;;4.60;;
81996;SDS011;71500;50.806;8.774;2023-11-21T03:11:49;10.80;;;5.40;;
81996;SDS011;71500;50.806;8.774;2023-11-21T03:14:20;10.30;;;5.30;;
81996;SDS011;71500;50.806;8.774;2023-11-21T03:16:52;10.80;;;5.60;;
81996;SDS011;71500;50.806;8.774;2023-11-21T03:19:23;7.80;;;4.60;;
81996;SDS011;71500;50.806;8.774;2023-11-21T03:21:55;8.00;;;5.30;;
81996;SDS011;71500;50.806;8.774;2023-11-21T03:24:26;7.60;;;4.40;;
81996;SDS011;71500;50.806;8.774;2023-11-21T03:26:57;7.10;;;4.60;;
81996;SDS011;71500;50.806;8.774;2023-11-21T03:29:29;5.70;;;3.40;;
81996;SDS011;71500;50.806;8.774;2023-11-21T03:32:00;5.90;;;3.40;;
81996;SDS011;71500;50.806;8.774;2023-11-21T03:34:31;6.20;;;3.70;;
81996;SDS011;71500;50.806;8.774;2023-11-21T03:37:03;7.40;;;3.60;;
81996;SDS011;71500;50.806;8.774;2023-11-21T03:39:35;6.70;;;4.00;;
81996;SDS011;71500;50.806;8.774;2023-11-21T03:42:06;7.00;;;4.50;;
81996;SDS011;71500;50.806;8.774;2023-11-21T03:44:37;8.20;;;4.30;;
81996;SDS011;71500;50.806;8.774;2023-11-21T03:47:09;5.50;;;3.50;;
81996;SDS011;71500;50.806;8.774;2023-11-21T03:49:41;6.90;;;4.50;;
81996;SDS011;71500;50.806;8.774;2023-11-21T03:52:12;8.30;;;4.30;;
81996;SDS011;71500;50.806;8.774;2023-11-21T03:54:43;7.20;;;3.90;;
81996;SDS011;71500;50.806;8.774;2023-11-21T03:57:15;7.20;;;4.00;;
81996;SDS011;71500;50.806;8.774;2023-11-21T03:59:46;6.10;;;3.50;;
81996;SDS011;71500;50.806;8.774;2023-11-21T04:02:18;6.50;;;3.70;;
81996;SDS011;71500;50.806;8.774;2023-11-21T04:04:49;6.50;;;4.00;;
81996;SDS011;71500;50.806;8.774;2023-11-21T04:07:20;8.20;;;4.90;;
81996;SDS011;71500;50.806;8.774;2023-11-21T04:09:52;8.90;;;4.60;;
81996;SDS011;71500;50.806;8.774;2023-11-21T04:12:23;8.00;;;4.50;;
81996;SDS011;71500;50.806;8.774;2023-11-21T04:14:55;7.50;;;4.70;;
81996;SDS011;71500;50.806;8.774;2023-11-21T04:17:26;8.50;;;4.90;;
81996;SDS011;71500;50.806;8.774;2023-11-21T04:19:57;7.30;;;4.60;;
81996;SDS011;71500;50.806;8.774;2023-11-21T04:22:29;7.90;;;4.40;;
81996;SDS011;71500;50.806;8.774;2023-11-21T04:25:00;8.00;;;3.70;;
81996;SDS011;71500;50.806;8.774;2023-11-21T04:27:32;8.30;;;4.30;;
81996;SDS011;71500;50.806;8.774;2023-11-21T04:30:05;6.80;;;4.30;;
81996;SDS011;71500;50.806;8.774;2023-11-21T04:32:38;7.80;;;5.10;;
81996;SDS011;71500;50.806;8.774;2023-11-21T04:35:11;7.90;;;4.70;;
81996;SDS011;71500;50.806;8.774;2023-11-21T04:37:43;6.10;;;3.50;;
81996;SDS011;71500;50.806;8.774;2023-11-21T04:40:14;8.60;;;4.60;;
81996;SDS011;71500;50.806;8.774;2023-11-21T04:42:46;7.90;;;4.40;;
81996;SDS011;71500;50.806;8.774;2023-11-21T04:45:17;8.40;;;4.80;;
81996;SDS011;71500;50.806;8.774;2023-11-21T04:47:49;8.20;;;5.20;;
81996;SDS011;71500;50.806;8.774;2023-11-21T04:50:21;8.30;;;4.40;;
81996;SDS011;71500;50.806;8.774;2023-11-21T04:52:55;7.10;;;4.00;;
81996;SDS011;71500;50.806;8.774;2023-11-21T04:55:26;8.40;;;4.10;;
81996;SDS011;71500;50.806;8.774;2023-11-21T04:57:58;8.40;;;5.30;;
81996;SDS011;71500;50.806;8.774;2023-11-21T05:00:29;8.20;;;4.00;;
81996;SDS011;71500;50.806;8.774;2023-11-21T05:03:01;8.40;;;4.60;;
81996;SDS011;71500;50.806;8.774;2023-11-21T05:05:34;7.70;;;4.50;;
81996;SDS011;71500;50.806;8.774;2023-11-21T05:08:05;6.50;;;3.90;;
81996;SDS011;71500;50.806;8.774;2023-11-21T05:10:37;7.40;;;4.10;;
81996;SDS011;71500;50.806;8.774;2023-11-21T05:13:08;6.40;;;3.70;;
81996;SDS011;71500;50.806;8.774;2023-11-21T05:15:40;6.20;;;3.90;;
81996;SDS011;71500;50.806;8.774;2023-11-21T05:18:11;6.90;;;4.00;;
81996;SDS011;71500;50.806;8.774;2023-11-21T05:20:43;6.80;;;3.80;;
81996;SDS011;71500;50.806;8.774;2023-11-21T05:23:16;5.60;;;3.40;;
81996;SDS011;71500;50.806;8.774;2023-11-21T05:25:47;7.10;;;4.30;;
81996;SDS011;71500;50.806;8.774;2023-11-21T05:28:18;6.70;;;4.00;;
81996;SDS011;71500;50.806;8.774;2023-11-21T05:30:50;6.10;;;4.10;;
81996;SDS011;71500;50.806;8.774;2023-11-21T05:33:41;7.90;;;4.80;;
81996;SDS011;71500;50.806;8.774;2023-11-21T05:36:13;6.00;;;3.60;;
81996;SDS011;71500;50.806;8.774;2023-11-21T05:38:44;7.10;;;4.10;;
81996;SDS011;71500;50.806;8.774;2023-11-21T05:41:16;6.20;;;3.50;;
81996;SDS011;71500;50.806;8.774;2023-11-21T05:43:47;5.40;;;3.40;;
81996;SDS011;71500;50.806;8.774;2023-11-21T05:46:19;5.80;;;3.60;;
81996;SDS011;71500;50.806;8.774;2023-11-21T05:48:50;6.10;;;3.90;;
81996;SDS011;71500;50.806;8.774;2023-11-21T05:51:22;7.10;;;3.80;;
81996;SDS011;71500;50.806;8.774;2023-11-21T05:53:53;6.10;;;4.00;;
81996;SDS011;71500;50.806;8.774;2023-11-21T05:56:24;6.80;;;4.10;;
81996;SDS011;71500;50.806;8.774;2023-11-21T05:58:56;8.50;;;4.20;;
81996;SDS011;71500;50.806;8.774;2023-11-21T06:01:28;5.20;;;3.50;;
81996;SDS011;71500;50.806;8.774;2023-11-21T06:04:00;6.40;;;3.50;;
81996;SDS011;71500;50.806;8.774;2023-11-21T06:06:32;5.30;;;3.70;;
81996;SDS011;71500;50.806;8.774;2023-11-21T06:09:04;5.10;;;3.50;;
81996;SDS011;71500;50.806;8.774;2023-11-21T06:11:37;6.30;;;3.60;;
81996;SDS011;71500;50.806;8.774;2023-11-21T06:14:08;4.60;;;3.30;;
81996;SDS011;71500;50.806;8.774;2023-11-21T06:16:40;5.00;;;3.20;;
81996;SDS011;71500;50.806;8.774;2023-11-21T06:19:12;5.90;;;3.60;;
81996;SDS011;71500;50.806;8.774;2023-11-21T06:21:46;6.00;;;3.80;;
81996;SDS011;71500;50.806;8.774;2023-11-21T06:24:17;6.90;;;4.20;;
81996;SDS011;71500;50.806;8.774;2023-11-21T06:26:50;7.20;;;4.30;;
81996;SDS011;71500;50.806;8.774;2023-11-21T06:29:21;6.40;;;4.80;;
81996;SDS011;71500;50.806;8.774;2023-11-21T06:31:52;5.30;;;4.00;;
81996;SDS011;71500;50.806;8.774;2023-11-21T06:34:24;5.20;;;3.90;;
81996;SDS011;71500;50.806;8.774;2023-11-21T06:36:56;5.40;;;3.40;;
81996;SDS011;71500;50.806;8.774;2023-11-21T06:39:28;4.90;;;3.30;;
81996;SDS011;71500;50.806;8.774;2023-11-21T06:41:59;4.10;;;3.60;;
81996;SDS011;71500;50.806;8.774;2023-11-21T06:44:30;5.00;;;3.40;;
81996;SDS011;71500;50.806;8.774;2023-11-21T06:47:04;4.70;;;3.00;;
81996;SDS011;71500;50.806;8.774;2023-11-21T06:49:36;5.90;;;3.80;;
81996;SDS011;71500;50.806;8.774;2023-11-21T06:52:08;5.20;;;3.50;;
81996;SDS011;71500;50.806;8.774;2023-11-21T06:54:39;6.10;;;4.10;;
81996;SDS011;71500;50.806;8.774;2023-11-21T06:57:11;6.40;;;3.70;;
81996;SDS011;71500;50.806;8.774;2023-11-21T06:59:42;6.90;;;3.60;;
81996;SDS011;71500;50.806;8.774;2023-11-21T07:02:14;4.90;;;3.60;;
81996;SDS011;71500;50.806;8.774;2023-11-21T07:04:47;5.90;;;3.90;;
81996;SDS011;71500;50.806;8.774;2023-11-21T07:07:19;5.10;;;3.30;;
81996;SDS011;71500;50.806;8.774;2023-11-21T07:09:50;4.60;;;3.20;;
81996;SDS011;71500;50.806;8.774;2023-11-21T07:12:22;5.00;;;3.40;;
81996;SDS011;71500;50.806;8.774;2023-11-21T07:14:54;6.40;;;4.10;;
81996;SDS011;71500;50.806;8.774;2023-11-21T07:17:25;6.80;;;4.20;;
81996;SDS011;71500;50.806;8.774;2023-11-21T07:19:57;6.50;;;4.10;;
81996;SDS011;71500;50.806;8.774;2023-11-21T07:22:28;5.50;;;3.70;;
81996;SDS011;71500;50.806;8.774;2023-11-21T07:25:00;6.10;;;4.30;;
81996;SDS011;71500;50.806;8.774;2023-11-21T07:27:31;5.70;;;4.00;;
81996;SDS011;71500;50.806;8.774;2023-11-21T07:32:38;4.90;;;3.50;;
81996;SDS011;71500;50.806;8.774;2023-11-21T07:35:10;4.60;;;3.30;;
81996;SDS011;71500;50.806;8.774;2023-11-21T07:37:41;5.90;;;3.70;;
81996;SDS011;71500;50.806;8.774;2023-11-21T07:40:13;5.60;;;3.30;;
81996;SDS011;71500;50.806;8.774;2023-11-21T07:42:45;4.80;;;3.30;;
81996;SDS011;71500;50.806;8.774;2023-11-21T07:45:18;6.80;;;4.10;;
81996;SDS011;71500;50.806;8.774;2023-11-21T07:47:50;7.10;;;4.10;;
81996;SDS011;71500;50.806;8.774;2023-11-21T07:50:22;7.00;;;4.90;;
81996;SDS011;71500;50.806;8.774;2023-11-21T07:52:55;7.00;;;4.50;;
81996;SDS011;71500;50.806;8.774;2023-11-21T07:55:27;7.70;;;4.70;;
81996;SDS011;71500;50.806;8.774;2023-11-21T07:58:01;5.70;;;4.40;;
81996;SDS011;71500;50.806;8.774;2023-11-21T08:00:32;6.20;;;3.80;;
81996;SDS011;71500;50.806;8.774;2023-11-21T08:03:04;5.30;;;3.90;;
81996;SDS011;71500;50.806;8.774;2023-11-21T08:05:36;6.40;;;3.20;;
81996;SDS011;71500;50.806;8.774;2023-11-21T08:08:07;5.90;;;3.70;;
81996;SDS011;71500;50.806;8.774;2023-11-21T08:10:40;6.20;;;4.10;;
81996;SDS011;71500;50.806;8.774;2023-11-21T08:13:12;6.10;;;4.00;;
81996;SDS011;71500;50.806;8.774;2023-11-21T08:15:45;5.90;;;3.80;;
81996;SDS011;71500;50.806;8.774;2023-11-21T08:18:17;5.60;;;4.40;;
81996;SDS011;71500;50.806;8.774;2023-11-21T08:20:49;8.20;;;3.70;;
81996;SDS011;71500;50.806;8.774;2023-11-21T08:23:20;6.00;;;3.80;;
81996;SDS011;71500;50.806;8.774;2023-11-21T08:25:54;5.30;;;3.50;;
81996;SDS011;71500;50.806;8.774;2023-11-21T08:28:26;5.30;;;3.80;;
81996;SDS011;71500;50.806;8.774;2023-11-21T08:30:57;6.00;;;4.40;;
81996;SDS011;71500;50.806;8.774;2023-11-21T08:36:00;4.90;;;3.30;;
81996;SDS011;71500;50.806;8.774;2023-11-21T08:38:36;6.50;;;3.40;;
81996;SDS011;71500;50.806;8.774;2023-11-21T08:41:07;6.70;;;3.50;;
81996;SDS011;71500;50.806;8.774;2023-11-21T08:43:39;7.20;;;4.60;;
81996;SDS011;71500;50.806;8.774;2023-11-21T08:46:11;5.00;;;3.90;;
81996;SDS011;71500;50.806;8.774;2023-11-21T08:48:42;7.00;;;4.60;;
81996;SDS011;71500;50.806;8.774;2023-11-21T08:51:14;6.00;;;4.60;;
81996;SDS011;71500;50.806;8.774;2023-11-21T08:53:45;6.60;;;4.20;;
81996;SDS011;71500;50.806;8.774;2023-11-21T08:56:17;6.00;;;4.20;;
81996;SDS011;71500;50.806;8.774;2023-11-21T08:58:48;5.30;;;3.70;;
81996;SDS011;71500;50.806;8.774;2023-11-21T09:01:21;5.40;;;3.90;;
81996;SDS011;71500;50.806;8.774;2023-11-21T09:03:54;6.10;;;3.90;;
81996;SDS011;71500;50.806;8.774;2023-11-21T09:06:26;5.60;;;4.10;;
81996;SDS011;71500;50.806;8.774;2023-11-21T09:08:57;5.20;;;3.70;;
81996;SDS011;71500;50.806;8.774;2023-11-21T09:11:29;5.50;;;4.00;;
81996;SDS011;71500;50.806;8.774;2023-11-21T09:14:02;4.30;;;3.10;;
81996;SDS011;71500;50.806;8.774;2023-11-21T09:16:34;6.80;;;4.20;;
81996;SDS011;71500;50.806;8.774;2023-11-21T09:19:05;7.50;;;4.70;;
81996;SDS011;71500;50.806;8.774;2023-11-21T09:21:37;7.60;;;4.60;;
81996;SDS011;71500;50.806;8.774;2023-11-21T09:24:08;6.30;;;4.00;;
81996;SDS011;71500;50.806;8.774;2023-11-21T09:26:40;5.70;;;4.10;;
81996;SDS011;71500;50.806;8.774;2023-11-21T09:29:11;6.70;;;4.40;;
81996;SDS011;71500;50.806;8.774;2023-11-21T09:31:43;5.70;;;4.20;;
81996;SDS011;71500;50.806;8.774;2023-11-21T09:34:14;5.70;;;4.10;;
81996;SDS011;71500;50.806;8.774;2023-11-21T09:36:46;7.80;;;4.20;;
81996;SDS011;71500;50.806;8.774;2023-11-21T09:39:18;8.20;;;4.90;;
81996;SDS011;71500;50.806;8.774;2023-11-21T09:41:50;6.50;;;4.00;;
81996;SDS011;71500;50.806;8.774;2023-11-21T09:44:29;5.20;;;4.10;;
81996;SDS011;71500;50.806;8.774;2023-11-21T09:47:05;7.40;;;4.10;;
81996;SDS011;71500;50.806;8.774;2023-11-21T09:49:39;8.30;;;4.30;;
81996;SDS011;71500;50.806;8.774;2023-11-21T09:52:12;7.00;;;4.00;;
81996;SDS011;71500;50.806;8.774;2023-11-21T09:54:54;6.80;;;3.70;;
81996;SDS011;71500;50.806;8.774;2023-11-21T09:57:26;6.30;;;3.90;;
81996;SDS011;71500;50.806;8.774;2023-11-21T09:59:58;5.20;;;3.90;;
81996;SDS011;71500;50.806;8.774;2023-11-21T10:02:33;7.60;;;3.90;;
81996;SDS011;71500;50.806;8.774;2023-11-21T10:05:07;6.40;;;4.60;;
81996;SDS011;71500;50.806;8.774;2023-11-21T10:07:40;5.40;;;4.40;;
81996;SDS011;71500;50.806;8.774;2023-11-21T10:10:14;7.10;;;4.30;;
81996;SDS011;71500;50.806;8.774;2023-11-21T10:12:48;7.30;;;4.20;;
81996;SDS011;71500;50.806;8.774;2023-11-21T10:15:24;6.60;;;4.40;;
81996;SDS011;71500;50.806;8.774;2023-11-21T10:17:56;5.80;;;4.00;;
81996;SDS011;71500;50.806;8.774;2023-11-21T10:20:28;8.00;;;5.00;;
81996;SDS011;71500;50.806;8.774;2023-11-21T10:23:02;6.60;;;5.10;;
81996;SDS011;71500;50.806;8.774;2023-11-21T10:25:36;9.00;;;4.80;;
81996;SDS011;71500;50.806;8.774;2023-11-21T10:28:08;6.80;;;4.30;;
81996;SDS011;71500;50.806;8.774;2023-11-21T10:30:40;7.10;;;4.20;;
81996;SDS011;71500;50.806;8.774;2023-11-21T10:33:13;6.30;;;4.30;;
81996;SDS011;71500;50.806;8.774;2023-11-21T10:35:44;5.60;;;3.40;;
81996;SDS011;71500;50.806;8.774;2023-11-21T10:38:20;4.70;;;3.10;;
81996;SDS011;71500;50.806;8.774;2023-11-21T10:40:53;6.00;;;4.10;;
81996;SDS011;71500;50.806;8.774;2023-11-21T10:43:25;6.60;;;4.30;;
81996;SDS011;71500;50.806;8.774;2023-11-21T10:45:58;7.30;;;4.00;;
81996;SDS011;71500;50.806;8.774;2023-11-21T10:48:29;6.50;;;3.70;;
81996;SDS011;71500;50.806;8.774;2023-11-21T10:51:07;5.30;;;3.60;;
81996;SDS011;71500;50.806;8.774;2023-11-21T10:53:40;6.60;;;3.90;;
81996;SDS011;71500;50.806;8.774;2023-11-21T10:56:16;9.40;;;5.30;;
81996;SDS011;71500;50.806;8.774;2023-11-21T10:58:50;5.30;;;3.70;;
81996;SDS011;71500;50.806;8.774;2023-11-21T11:01:22;6.10;;;4.30;;
81996;SDS011;71500;50.806;8.774;2023-11-21T11:03:58;7.60;;;4.40;;
81996;SDS011;71500;50.806;8.774;2023-11-21T11:06:30;7.20;;;4.10;;
81996;SDS011;71500;50.806;8.774;2023-11-21T11:09:02;7.50;;;4.00;;
81996;SDS011;71500;50.806;8.774;2023-11-21T11:11:37;7.30;;;4.30;;
81996;SDS011;71500;50.806;8.774;2023-11-21T11:14:10;8.30;;;4.00;;
81996;SDS011;71500;50.806;8.774;2023-11-21T11:16:42;6.60;;;4.30;;
81996;SDS011;71500;50.806;8.774;2023-11-21T11:19:14;6.20;;;4.70;;
81996;SDS011;71500;50.806;8.774;2023-11-21T11:21:48;6.80;;;4.40;;
81996;SDS011;71500;50.806;8.774;2023-11-21T11:24:40;8.10;;;4.80;;
81996;SDS011;71500;50.806;8.774;2023-11-21T11:27:26;9.30;;;4.60;;
81996;SDS011;71500;50.806;8.774;2023-11-21T11:30:20;8.50;;;5.00;;
81996;SDS011;71500;50.806;8.774;2023-11-21T11:33:09;6.10;;;4.50;;
81996;SDS011;71500;50.806;8.774;2023-11-21T11:35:56;6.80;;;4.30;;
81996;SDS011;71500;50.806;8.774;2023-11-21T11:38:32;9.50;;;4.60;;
81996;SDS011;71500;50.806;8.774;2023-11-21T11:41:07;7.40;;;4.30;;
81996;SDS011;71500;50.806;8.774;2023-11-21T11:43:38;7.60;;;4.50;;
81996;SDS011;71500;50.806;8.774;2023-11-21T11:46:13;7.60;;;4.20;;
81996;SDS011;71500;50.806;8.774;2023-11-21T11:48:44;9.00;;;4.50;;
81996;SDS011;71500;50.806;8.774;2023-11-21T11:51:16;10.40;;;5.60;;
81996;SDS011;71500;50.806;8.774;2023-11-21T11:53:49;7.40;;;4.60;;
81996;SDS011;71500;50.806;8.774;2023-11-21T11:56:24;11.50;;;5.20;;
81996;SDS011;71500;50.806;8.774;2023-11-21T12:01:33;9.80;;;5.00;;
81996;SDS011;71500;50.806;8.774;2023-11-21T12:07:03;8.60;;;4.70;;
81996;SDS011;71500;50.806;8.774;2023-11-21T12:09:35;9.30;;;5.00;;
81996;SDS011;71500;50.806;8.774;2023-11-21T12:12:09;8.90;;;5.50;;
81996;SDS011;71500;50.806;8.774;2023-11-21T12:14:40;8.40;;;4.90;;
81996;SDS011;71500;50.806;8.774;2023-11-21T12:17:14;8.00;;;4.80;;
81996;SDS011;71500;50.806;8.774;2023-11-21T12:19:46;9.40;;;5.00;;
81996;SDS011;71500;50.806;8.774;2023-11-21T12:22:19;8.00;;;5.20;;
81996;SDS011;71500;50.806;8.774;2023-11-21T12:24:52;7.20;;;4.40;;
81996;SDS011;71500;50.806;8.774;2023-11-21T12:27:24;8.90;;;5.10;;
81996;SDS011;71500;50.806;8.774;2023-11-21T12:29:56;8.10;;;4.90;;
81996;SDS011;71500;50.806;8.774;2023-11-21T12:32:27;8.50;;;5.10;;
81996;SDS011;71500;50.806;8.774;2023-11-21T12:34:59;11.10;;;6.60;;
81996;SDS011;71500;50.806;8.774;2023-11-21T12:37:32;11.00;;;6.10;;
81996;SDS011;71500;50.806;8.774;2023-11-21T12:40:04;8.70;;;5.10;;
81996;SDS011;71500;50.806;8.774;2023-11-21T12:42:40;14.30;;;6.30;;
81996;SDS011;71500;50.806;8.774;2023-11-21T12:45:22;10.40;;;4.70;;
81996;SDS011;71500;50.806;8.774;2023-11-21T12:47:56;9.30;;;5.30;;
81996;SDS011;71500;50.806;8.774;2023-11-21T12:50:31;6.80;;;4.00;;
81996;SDS011;71500;50.806;8.774;2023-11-21T12:53:04;11.20;;;5.00;;
81996;SDS011;71500;50.806;8.774;2023-11-21T12:55:39;7.40;;;5.00;;
81996;SDS011;71500;50.806;8.774;2023-11-21T12:58:11;7.40;;;5.10;;
81996;SDS011;71500;50.806;8.774;2023-11-21T13:00:44;7.70;;;4.80;;
81996;SDS011;71500;50.806;8.774;2023-11-21T13:03:17;6.20;;;4.70;;
81996;SDS011;71500;50.806;8.774;2023-11-21T13:05:55;9.40;;;4.60;;
81996;SDS011;71500;50.806;8.774;2023-11-21T13:08:27;8.70;;;5.10;;
81996;SDS011;71500;50.806;8.774;2023-11-21T13:10:59;8.60;;;4.50;;
81996;SDS011;71500;50.806;8.774;2023-11-21T13:13:31;13.70;;;7.70;;
81996;SDS011;71500;50.806;8.774;2023-11-21T13:16:03;9.50;;;6.40;;
81996;SDS011;71500;50.806;8.774;2023-11-21T13:18:37;8.40;;;4.80;;
81996;SDS011;71500;50.806;8.774;2023-11-21T13:21:11;8.00;;;4.90;;
81996;SDS011;71500;50.806;8.774;2023-11-21T13:23:43;8.70;;;4.70;;
81996;SDS011;71500;50.806;8.774;2023-11-21T13:26:17;14.40;;;6.80;;
81996;SDS011;71500;50.806;8.774;2023-11-21T13:28:49;10.90;;;7.70;;
81996;SDS011;71500;50.806;8.774;2023-11-21T13:31:20;11.90;;;7.40;;
81996;SDS011;71500;50.806;8.774;2023-11-21T13:33:55;8.90;;;5.90;;
81996;SDS011;71500;50.806;8.774;2023-11-21T13:36:33;7.40;;;4.70;;
81996;SDS011;71500;50.806;8.774;2023-11-21T13:39:05;8.70;;;5.30;;
81996;SDS011;71500;50.806;8.774;2023-11-21T13:41:44;7.80;;;4.80;;
81996;SDS011;71500;50.806;8.774;2023-11-21T13:44:17;9.60;;;6.30;;
81996;SDS011;71500;50.806;8.774;2023-11-21T13:46:56;9.20;;;6.40;;
81996;SDS011;71500;50.806;8.774;2023-11-21T13:49:28;9.60;;;5.60;;
81996;SDS011;71500;50.806;8.774;2023-11-21T13:52:04;9.20;;;5.40;;
81996;SDS011;71500;50.806;8.774;2023-11-21T13:54:36;11.70;;;6.20;;
81996;SDS011;71500;50.806;8.774;2023-11-21T13:57:07;9.40;;;6.10;;
81996;SDS011;71500;50.806;8.774;2023-11-21T13:59:39;9.60;;;5.80;;
81996;SDS011;71500;50.806;8.774;2023-11-21T14:02:12;10.60;;;6.20;;
81996;SDS011;71500;50.806;8.774;2023-11-21T14:04:47;8.80;;;6.10;;
81996;SDS011;71500;50.806;8.774;2023-11-21T14:07:25;8.90;;;5.60;;
81996;SDS011;71500;50.806;8.774;2023-11-21T14:10:01;8.90;;;5.40;;
81996;SDS011;71500;50.806;8.774;2023-11-21T14:12:36;9.60;;;5.40;;
81996;SDS011;71500;50.806;8.774;2023-11-21T14:15:10;8.40;;;5.60;;
81996;SDS011;71500;50.806;8.774;2023-11-21T14:17:46;9.20;;;6.60;;
81996;SDS011;71500;50.806;8.774;2023-11-21T14:20:18;8.50;;;5.30;;
81996;SDS011;71500;50.806;8.774;2023-11-21T14:22:50;9.70;;;5.20;;
81996;SDS011;71500;50.806;8.774;2023-11-21T14:25:21;10.70;;;5.70;;
81996;SDS011;71500;50.806;8.774;2023-11-21T14:27:52;8.40;;;4.80;;
81996;SDS011;71500;50.806;8.774;2023-11-21T14:30:25;8.50;;;4.50;;
81996;SDS011;71500;50.806;8.774;2023-11-21T14:32:58;7.90;;;4.50;;
81996;SDS011;71500;50.806;8.774;2023-11-21T14:35:30;7.60;;;3.90;;
81996;SDS011;71500;50.806;8.774;2023-11-21T14:38:03;6.10;;;4.50;;
81996;SDS011;71500;50.806;8.774;2023-11-21T14:40:35;6.20;;;4.10;;
81996;SDS011;71500;50.806;8.774;2023-11-21T14:43:06;5.80;;;3.70;;
81996;SDS011;71500;50.806;8.774;2023-11-21T14:45:37;5.60;;;3.30;;
81996;SDS011;71500;50.806;8.774;2023-11-21T14:48:09;7.80;;;3.90;;
81996;SDS011;71500;50.806;8.774;2023-11-21T14:50:45;7.00;;;4.40;;
81996;SDS011;71500;50.806;8.774;2023-11-21T14:53:41;5.10;;;3.80;;
81996;SDS011;71500;50.806;8.774;2023-11-21T14:56:22;6.70;;;3.90;;
81996;SDS011;71500;50.806;8.774;2023-11-21T14:58:59;6.40;;;3.30;;
81996;SDS011;71500;50.806;8.774;2023-11-21T15:01:37;7.70;;;3.80;;
81996;SDS011;71500;50.806;8.774;2023-11-21T15:04:24;4.90;;;3.40;;
81996;SDS011;71500;50.806;8.774;2023-11-21T15:07:05;4.10;;;2.60;;
81996;SDS011;71500;50.806;8.774;2023-11-21T15:09:36;4.30;;;2.70;;
81996;SDS011;71500;50.806;8.774;2023-11-21T15:12:11;4.40;;;2.50;;
81996;SDS011;71500;50.806;8.774;2023-11-21T15:14:49;4.30;;;2.80;;
81996;SDS011;71500;50.806;8.774;2023-11-21T15:17:23;3.50;;;2.60;;
81996;SDS011;71500;50.806;8.774;2023-11-21T15:19:55;3.80;;;2.70;;
81996;SDS011;71500;50.806;8.774;2023-11-21T15:22:29;4.40;;;2.60;;
81996;SDS011;71500;50.806;8.774;2023-11-21T15:25:00;4.40;;;2.80;;
81996;SDS011;71500;50.806;8.774;2023-11-21T15:27:37;5.00;;;2.80;;
81996;SDS011;71500;50.806;8.774;2023-11-21T15:30:10;3.70;;;2.50;;
81996;SDS011;71500;50.806;8.774;2023-11-21T15:32:42;3.00;;;2.20;;